createdAt,value
2019-06-01T00:02:21.643Z,4.17
2019-06-01T00:04:52.364Z,4.60
2019-06-01T00:07:22.447Z,4.60
2019-06-01T00:09:52.418Z,5.37
2019-06-01T00:12:22.431Z,7.83
2019-06-01T00:14:52.416Z,13.00
2019-06-01T00:17:22.495Z,3.57
2019-06-01T00:19:52.483Z,7.27
2019-06-01T00:22:22.563Z,5.73
2019-06-01T00:24:52.556Z,4.23
2019-06-01T00:27:22.642Z,5.23
2019-06-01T00:29:53.135Z,4.40
2019-06-01T00:32:23.258Z,9.17
2019-06-01T00:34:53.321Z,5.87
2019-06-01T00:37:23.383Z,8.13
2019-06-01T00:39:53.435Z,8.70
2019-06-01T00:42:23.522Z,3.30
2019-06-01T00:44:53.572Z,4.60
2019-06-01T00:47:23.655Z,7.33
2019-06-01T00:49:53.636Z,9.43
2019-06-01T00:52:23.650Z,8.10
2019-06-01T00:54:53.710Z,4.20
2019-06-01T00:57:23.720Z,4.20
2019-06-01T00:59:55.103Z,3.70
2019-06-01T01:02:25.490Z,3.97
2019-06-01T01:05:13.522Z,3.10
2019-06-01T01:07:44.548Z,3.87
2019-06-01T01:10:15.838Z,4.20
2019-06-01T01:13:05.826Z,3.77
2019-06-01T01:15:36.781Z,2.73
2019-06-01T01:18:08.087Z,5.03
2019-06-01T01:20:38.791Z,6.03
2019-06-01T01:23:09.387Z,5.80
2019-06-01T01:25:39.420Z,3.50
2019-06-01T01:28:09.393Z,3.03
2019-06-01T01:30:39.421Z,2.73
2019-06-01T01:33:09.433Z,3.23
2019-06-01T01:35:39.415Z,4.43
2019-06-01T01:38:09.357Z,2.77
2019-06-01T01:40:39.346Z,3.37
2019-06-01T01:43:09.424Z,5.07
2019-06-01T01:45:39.404Z,3.57
2019-06-01T01:48:09.425Z,2.93
2019-06-01T01:50:39.406Z,3.27
2019-06-01T01:53:09.417Z,3.20
2019-06-01T01:55:39.391Z,2.67
2019-06-01T01:58:09.409Z,6.97
2019-06-01T02:00:42.373Z,5.67
2019-06-01T02:03:12.458Z,5.53
2019-06-01T02:05:42.502Z,5.90
2019-06-01T02:08:12.604Z,2.40
2019-06-01T02:10:43.656Z,5.67
2019-06-01T02:13:13.671Z,7.47
2019-06-01T02:15:43.657Z,2.90
2019-06-01T02:18:13.749Z,3.07
2019-06-01T02:20:43.731Z,6.93
2019-06-01T02:23:13.757Z,6.60
2019-06-01T02:25:43.809Z,2.50
2019-06-01T02:28:13.823Z,2.77
2019-06-01T02:30:43.813Z,3.50
2019-06-01T02:33:13.781Z,3.50
2019-06-01T02:35:43.837Z,4.80
2019-06-01T02:38:13.828Z,3.77
2019-06-01T02:40:43.943Z,4.00
2019-06-01T02:43:14.523Z,4.63
2019-06-01T02:45:44.538Z,3.10
2019-06-01T02:48:14.517Z,4.73
2019-06-01T02:50:44.541Z,5.90
2019-06-01T02:53:14.510Z,3.70
2019-06-01T02:55:44.529Z,4.40
2019-06-01T02:58:14.513Z,2.70
2019-06-01T03:01:02.985Z,4.80
2019-06-01T03:03:33.225Z,5.60
2019-06-01T03:06:05.595Z,4.80
2019-06-01T03:08:37.452Z,2.63
2019-06-01T03:11:09.486Z,2.50
2019-06-01T03:13:42.305Z,3.37
2019-06-01T03:16:15.191Z,3.10
2019-06-01T03:18:46.397Z,4.13
2019-06-01T03:21:19.110Z,2.60
2019-06-01T03:23:50.123Z,4.73
2019-06-01T03:26:23.010Z,2.93
2019-06-01T03:28:54.705Z,5.25
2019-06-01T03:31:24.684Z,2.83
2019-06-01T03:33:54.696Z,4.80
2019-06-01T03:36:24.668Z,3.60
2019-06-01T03:38:54.691Z,2.97
2019-06-01T03:41:24.673Z,3.60
2019-06-01T03:43:55.816Z,4.27
2019-06-01T03:46:25.901Z,4.40
2019-06-01T03:48:55.975Z,3.90
2019-06-01T03:51:25.993Z,5.17
2019-06-01T03:53:55.983Z,2.70
2019-06-01T03:56:25.996Z,3.17
2019-06-01T03:58:55.983Z,5.87
2019-06-01T04:01:26.000Z,3.60
2019-06-01T04:03:56.054Z,3.63
2019-06-01T04:06:26.842Z,5.20
2019-06-01T04:08:56.857Z,3.57
2019-06-01T04:11:26.835Z,3.97
2019-06-01T04:13:56.869Z,3.60
2019-06-01T04:16:26.918Z,2.27
2019-06-01T04:18:56.938Z,3.60
2019-06-01T04:21:26.912Z,2.33
2019-06-01T04:23:56.924Z,2.27
2019-06-01T04:26:27.676Z,2.83
2019-06-01T04:28:57.758Z,3.07
2019-06-01T04:31:27.733Z,3.97
2019-06-01T04:33:57.746Z,2.67
2019-06-01T04:36:27.731Z,1.80
2019-06-01T04:38:57.804Z,1.97
2019-06-01T04:41:27.830Z,2.50
2019-06-01T04:43:58.180Z,2.27
2019-06-01T04:46:28.194Z,3.20
2019-06-01T04:48:58.175Z,2.77
2019-06-01T04:51:28.188Z,1.83
2019-06-01T04:53:58.169Z,1.40
2019-06-01T04:56:28.306Z,1.77
2019-06-01T04:58:58.320Z,1.63
2019-06-01T05:01:28.364Z,1.53
2019-06-01T05:03:58.385Z,1.30
2019-06-01T05:06:29.460Z,1.47
2019-06-01T05:08:59.438Z,2.17
2019-06-01T05:11:29.445Z,1.43
2019-06-01T05:13:59.450Z,1.40
2019-06-01T05:16:29.428Z,1.40
2019-06-01T05:18:59.439Z,2.33
2019-06-01T05:21:29.479Z,1.90
2019-06-01T05:23:59.494Z,1.80
2019-06-01T05:26:29.472Z,1.67
2019-06-01T05:29:00.664Z,1.40
2019-06-01T05:31:30.634Z,1.60
2019-06-01T05:34:00.643Z,2.77
2019-06-01T05:36:30.637Z,1.50
2019-06-01T05:39:00.648Z,1.83
2019-06-01T05:41:30.694Z,1.80
2019-06-01T05:44:00.779Z,1.67
2019-06-01T05:46:30.775Z,3.10
2019-06-01T05:49:00.747Z,2.07
2019-06-01T05:51:30.754Z,2.07
2019-06-01T05:54:00.811Z,2.37
2019-06-01T05:56:30.807Z,1.67
2019-06-01T05:59:00.856Z,5.00
2019-06-01T06:01:30.875Z,3.10
2019-06-01T06:04:00.857Z,2.07
2019-06-01T06:06:30.877Z,1.50
2019-06-01T06:09:00.865Z,1.27
2019-06-01T06:11:32.367Z,2.13
2019-06-01T06:14:02.421Z,4.67
2019-06-01T06:16:32.362Z,3.53
2019-06-01T06:19:02.351Z,2.90
2019-06-01T06:21:32.364Z,2.87
2019-06-01T06:24:02.508Z,3.00
2019-06-01T06:26:32.526Z,1.57
2019-06-01T06:29:02.589Z,3.40
2019-06-01T06:31:32.596Z,3.70
2019-06-01T06:34:02.572Z,2.20
2019-06-01T06:36:32.586Z,2.30
2019-06-01T06:39:04.685Z,1.93
2019-06-01T06:41:34.263Z,2.10
2019-06-01T06:44:04.346Z,2.10
2019-06-01T06:46:34.319Z,1.77
2019-06-01T06:49:04.328Z,2.07
2019-06-01T06:51:34.298Z,2.43
2019-06-01T06:54:04.306Z,1.47
2019-06-01T06:56:34.354Z,2.07
2019-06-01T06:59:04.400Z,4.67
2019-06-01T07:01:34.378Z,1.20
2019-06-01T07:04:12.829Z,1.20
2019-06-01T07:06:36.144Z,1.30
2019-06-01T07:09:07.083Z,1.50
2019-06-01T07:11:37.136Z,1.47
2019-06-01T07:14:07.127Z,2.03
2019-06-01T07:16:37.105Z,1.47
2019-06-01T07:19:07.113Z,1.93
2019-06-01T07:21:37.163Z,1.10
2019-06-01T07:24:07.193Z,4.13
2019-06-01T07:26:37.193Z,1.13
2019-06-01T07:29:07.188Z,2.47
2019-06-01T07:31:37.154Z,1.33
2019-06-01T07:34:07.162Z,3.17
2019-06-01T07:36:37.138Z,0.97
2019-06-01T07:39:08.319Z,2.97
2019-06-01T07:41:38.296Z,1.63
2019-06-01T07:44:08.303Z,0.80
2019-06-01T07:46:39.106Z,1.40
2019-06-01T07:49:09.117Z,2.20
2019-06-01T07:51:39.204Z,3.40
2019-06-01T07:54:09.257Z,1.23
2019-06-01T07:56:39.198Z,1.30
2019-06-01T07:59:09.171Z,1.30
2019-06-01T08:01:39.301Z,1.53
2019-06-01T08:04:09.235Z,4.70
2019-06-01T08:06:45.242Z,0.97
2019-06-01T08:09:10.996Z,2.50
2019-06-01T08:11:41.006Z,4.70
2019-06-01T08:14:11.071Z,10.30
2019-06-01T08:16:41.200Z,4.83
2019-06-01T08:19:11.182Z,2.20
2019-06-01T08:21:41.252Z,2.30
2019-06-01T08:24:11.332Z,1.73
2019-06-01T08:26:41.463Z,1.30
2019-06-01T08:29:11.443Z,1.27
2019-06-01T08:31:41.380Z,1.20
2019-06-01T08:34:11.467Z,1.40
2019-06-01T08:36:41.556Z,2.27
2019-06-01T08:39:11.536Z,0.93
2019-06-01T08:41:41.558Z,2.87
2019-06-01T08:44:11.625Z,2.80
2019-06-01T08:46:41.671Z,0.90
2019-06-01T08:49:11.682Z,0.70
2019-06-01T08:51:41.585Z,1.07
2019-06-01T08:54:11.596Z,1.00
2019-06-01T08:56:41.644Z,3.00
2019-06-01T08:59:11.658Z,2.07
2019-06-01T09:01:41.674Z,1.30
2019-06-01T09:04:11.654Z,1.20
2019-06-01T09:06:41.670Z,3.50
2019-06-01T09:09:12.084Z,1.17
2019-06-01T09:11:42.519Z,0.97
2019-06-01T09:14:12.503Z,1.20
2019-06-01T09:16:42.610Z,1.53
2019-06-01T09:19:12.586Z,1.33
2019-06-01T09:21:42.581Z,3.40
2019-06-01T09:24:12.557Z,1.70
2019-06-01T09:26:42.578Z,1.43
2019-06-01T09:29:12.485Z,1.60
2019-06-01T09:31:42.506Z,1.10
2019-06-01T09:34:12.491Z,0.93
2019-06-01T09:36:42.502Z,1.17
2019-06-01T09:39:12.483Z,1.20
2019-06-01T09:41:42.482Z,2.70
2019-06-01T09:44:12.501Z,1.10
2019-06-01T09:46:42.565Z,1.60
2019-06-01T09:49:12.550Z,1.37
2019-06-01T09:51:42.570Z,1.30
2019-06-01T09:54:12.550Z,5.03
2019-06-01T09:56:42.627Z,1.00
2019-06-01T09:59:12.607Z,1.83
2019-06-01T10:01:42.627Z,1.27
2019-06-01T10:04:12.611Z,1.23
2019-06-01T10:06:42.616Z,3.57
2019-06-01T10:09:12.594Z,1.13
2019-06-01T10:11:42.606Z,1.07
2019-06-01T10:14:12.593Z,1.40
2019-06-01T10:16:43.236Z,1.57
2019-06-01T10:19:13.456Z,2.63
2019-06-01T10:21:43.459Z,2.50
2019-06-01T10:24:13.437Z,1.27
2019-06-01T10:26:43.524Z,0.93
2019-06-01T10:29:13.491Z,1.83
2019-06-01T10:31:43.514Z,1.10
2019-06-01T10:34:13.559Z,1.37
2019-06-01T10:36:43.579Z,1.50
2019-06-01T10:39:13.628Z,1.40
2019-06-01T10:41:43.638Z,2.30
2019-06-01T10:44:13.547Z,1.43
2019-06-01T10:46:43.559Z,1.00
2019-06-01T10:49:13.539Z,1.17
2019-06-01T10:51:43.489Z,1.90
2019-06-01T10:54:13.467Z,1.10
2019-06-01T10:56:44.685Z,4.30
2019-06-01T10:59:14.698Z,1.00
2019-06-01T11:01:44.756Z,1.27
2019-06-01T11:04:14.735Z,1.67
2019-06-01T11:06:48.548Z,2.57
2019-06-01T11:09:16.359Z,1.13
2019-06-01T11:11:46.431Z,2.70
2019-06-01T11:14:16.481Z,2.37
2019-06-01T11:16:51.343Z,1.10
2019-06-01T11:19:18.117Z,1.80
2019-06-01T11:21:48.095Z,1.50
2019-06-01T11:24:18.103Z,4.50
2019-06-01T11:26:48.072Z,1.50
2019-06-01T11:29:18.055Z,4.47
2019-06-01T11:31:48.068Z,1.97
2019-06-01T11:34:18.054Z,1.27
2019-06-01T11:37:04.303Z,1.30
2019-06-01T11:39:19.736Z,1.13
2019-06-01T11:41:49.671Z,3.80
2019-06-01T11:44:19.655Z,1.53
2019-06-01T11:46:49.586Z,1.20
2019-06-01T11:49:21.241Z,4.20
2019-06-01T11:51:51.569Z,1.33
2019-06-01T11:54:21.887Z,1.60
2019-06-01T11:56:51.907Z,1.33
2019-06-01T11:59:21.803Z,2.33
2019-06-01T12:01:51.915Z,1.03
2019-06-01T12:04:21.879Z,1.00
2019-06-01T12:06:52.579Z,1.50
2019-06-01T12:09:22.548Z,2.27
2019-06-01T12:11:52.574Z,1.20
2019-06-01T12:14:22.546Z,3.00
2019-06-01T12:16:52.631Z,2.43
2019-06-01T12:19:22.610Z,2.77
2019-06-01T12:21:52.705Z,3.30
2019-06-01T12:24:25.639Z,1.83
2019-06-01T12:26:54.337Z,4.13
2019-06-01T12:29:24.381Z,2.17
2019-06-01T12:31:54.465Z,1.73
2019-06-01T12:34:24.437Z,1.93
2019-06-01T12:36:54.378Z,1.10
2019-06-01T12:39:24.437Z,5.13
2019-06-01T12:41:54.448Z,1.10
2019-06-01T12:44:24.423Z,1.73
2019-06-01T12:46:54.503Z,2.73
2019-06-01T12:49:24.544Z,1.43
2019-06-01T12:51:54.593Z,1.67
2019-06-01T12:54:24.455Z,3.03
2019-06-01T12:56:54.463Z,1.30
2019-06-01T12:59:24.444Z,5.60
2019-06-01T13:01:56.232Z,1.70
2019-06-01T13:04:26.208Z,1.93
2019-06-01T13:06:56.218Z,1.10
2019-06-01T13:09:26.198Z,1.83
2019-06-01T13:11:56.221Z,5.60
2019-06-01T13:14:26.309Z,3.90
2019-06-01T13:17:06.799Z,2.17
2019-06-01T13:19:27.997Z,1.43
2019-06-01T13:21:57.903Z,3.47
2019-06-01T13:24:27.979Z,2.20
2019-06-01T13:26:57.978Z,3.10
2019-06-01T13:29:27.930Z,2.17
2019-06-01T13:31:57.911Z,4.33
2019-06-01T13:34:27.923Z,2.33
2019-06-01T13:36:57.910Z,3.70
2019-06-01T13:39:27.926Z,1.30
2019-06-01T13:41:57.912Z,3.73
2019-06-01T13:44:27.923Z,1.63
2019-06-01T13:46:57.892Z,1.43
2019-06-01T13:49:27.961Z,1.77
2019-06-01T13:51:57.941Z,2.57
2019-06-01T13:54:27.951Z,1.47
2019-06-01T13:56:58.030Z,1.70
2019-06-01T13:59:28.111Z,2.60
2019-06-01T14:01:58.088Z,3.33
2019-06-01T14:04:28.178Z,3.33
2019-06-01T14:06:58.153Z,3.07
2019-06-01T14:09:28.164Z,2.40
2019-06-01T14:11:58.135Z,2.13
2019-06-01T14:14:28.147Z,3.23
2019-06-01T14:16:58.160Z,2.40
2019-06-01T14:19:28.138Z,3.17
2019-06-01T14:21:58.149Z,2.67
2019-06-01T14:24:28.131Z,4.03
2019-06-01T14:26:58.157Z,2.60
2019-06-01T14:29:28.074Z,4.87
2019-06-01T14:31:58.099Z,4.03
2019-06-01T14:34:28.078Z,2.27
2019-06-01T14:36:58.084Z,2.03
2019-06-01T14:39:28.062Z,1.77
2019-06-01T14:41:58.059Z,1.40
2019-06-01T14:44:28.111Z,1.30
2019-06-01T14:47:03.819Z,1.30
2019-06-01T14:49:29.731Z,2.80
2019-06-01T14:51:59.734Z,1.57
2019-06-01T14:54:29.677Z,2.27
2019-06-01T14:56:59.721Z,3.03
2019-06-01T14:59:29.765Z,1.30
2019-06-01T15:01:59.741Z,2.33
2019-06-01T15:04:29.759Z,3.13
2019-06-01T15:06:59.783Z,3.47
2019-06-01T15:09:29.767Z,2.33
2019-06-01T15:11:59.744Z,2.23
2019-06-01T15:14:29.750Z,2.53
2019-06-01T15:16:59.790Z,3.90
2019-06-01T15:19:30.971Z,1.97
2019-06-01T15:22:00.910Z,2.37
2019-06-01T15:24:30.895Z,1.87
2019-06-01T15:27:00.862Z,1.80
2019-06-01T15:29:30.839Z,3.90
2019-06-01T15:32:02.167Z,1.97
2019-06-01T15:34:32.599Z,1.40
2019-06-01T15:37:02.609Z,1.60
2019-06-01T15:39:32.589Z,2.07
2019-06-01T15:42:02.709Z,3.33
2019-06-01T15:44:32.705Z,2.83
2019-06-01T15:47:02.740Z,3.77
2019-06-01T15:49:32.726Z,3.40
2019-06-01T15:52:03.758Z,2.60
2019-06-01T15:54:33.740Z,3.20
2019-06-01T15:57:03.798Z,2.43
2019-06-01T15:59:33.763Z,2.57
2019-06-01T16:02:03.777Z,3.53
2019-06-01T16:04:33.759Z,2.40
2019-06-01T16:07:03.798Z,1.70
2019-06-01T16:09:42.625Z,4.40
2019-06-01T16:12:05.705Z,1.60
2019-06-01T16:14:35.780Z,2.80
2019-06-01T16:17:05.855Z,2.77
2019-06-01T16:19:35.946Z,3.37
2019-06-01T16:22:05.917Z,3.40
2019-06-01T16:24:35.993Z,3.33
2019-06-01T16:27:06.079Z,3.87
2019-06-01T16:29:36.088Z,3.20
2019-06-01T16:32:06.097Z,3.43
2019-06-01T16:34:36.100Z,6.00
2019-06-01T16:37:06.084Z,3.67
2019-06-01T16:39:36.168Z,2.67
2019-06-01T16:42:06.322Z,2.80
2019-06-01T16:44:36.443Z,3.00
2019-06-01T16:47:06.427Z,2.97
2019-06-01T16:49:36.437Z,3.43
2019-06-01T16:52:07.179Z,2.63
2019-06-01T16:54:37.440Z,3.53
2019-06-01T16:57:07.490Z,3.17
2019-06-01T16:59:38.580Z,6.33
2019-06-01T17:02:09.252Z,3.30
2019-06-01T17:04:39.263Z,4.23
2019-06-01T17:07:09.280Z,4.07
2019-06-01T17:09:39.364Z,4.43
2019-06-01T17:12:09.390Z,2.00
2019-06-01T17:14:39.511Z,4.60
2019-06-01T17:17:09.595Z,2.43
2019-06-01T17:19:39.611Z,3.13
2019-06-01T17:22:09.655Z,2.47
2019-06-01T17:24:39.741Z,3.03
2019-06-01T17:27:09.713Z,2.63
2019-06-01T17:29:39.731Z,3.60
2019-06-01T17:32:23.027Z,3.37
2019-06-01T17:34:41.492Z,4.27
2019-06-01T17:37:11.474Z,3.80
2019-06-01T17:39:41.785Z,2.03
2019-06-01T17:42:12.724Z,1.83
2019-06-01T17:44:43.222Z,4.27
2019-06-01T17:47:13.189Z,3.50
2019-06-01T17:49:43.285Z,2.30
2019-06-01T17:52:13.249Z,2.20
2019-06-01T17:54:44.428Z,2.17
2019-06-01T17:57:14.436Z,3.53
2019-06-01T17:59:44.648Z,1.60
2019-06-01T18:02:15.041Z,1.50
2019-06-01T18:04:45.079Z,1.90
2019-06-01T18:07:15.164Z,2.37
2019-06-01T18:09:45.185Z,2.53
2019-06-01T18:12:15.308Z,9.17
2019-06-01T18:14:45.320Z,6.30
2019-06-01T18:17:15.366Z,4.03
2019-06-01T18:19:45.458Z,3.97
2019-06-01T18:22:15.434Z,4.23
2019-06-01T18:24:45.523Z,2.40
2019-06-01T18:27:15.577Z,4.00
2019-06-01T18:29:48.672Z,3.33
2019-06-01T18:32:17.398Z,2.50
2019-06-01T18:34:47.479Z,3.73
2019-06-01T18:37:17.518Z,3.50
2019-06-01T18:39:48.268Z,3.93
2019-06-01T18:42:21.336Z,2.77
2019-06-01T18:44:51.349Z,5.20
2019-06-01T18:47:31.811Z,4.53
2019-06-01T18:49:53.304Z,2.40
2019-06-01T18:52:23.289Z,3.10
2019-06-01T18:54:53.372Z,2.60
2019-06-01T18:57:23.455Z,3.00
2019-06-01T18:59:53.544Z,2.20
2019-06-01T19:02:23.532Z,2.80
2019-06-01T19:04:53.549Z,2.60
2019-06-01T19:07:23.534Z,2.00
2019-06-01T19:09:53.620Z,2.90
2019-06-01T19:12:24.528Z,4.17
2019-06-01T19:14:54.993Z,2.90
2019-06-01T19:17:24.998Z,4.97
2019-06-01T19:19:54.985Z,2.97
2019-06-01T19:22:25.062Z,5.70
2019-06-01T19:24:55.052Z,3.17
2019-06-01T19:27:25.054Z,2.60
2019-06-01T19:29:55.031Z,3.93
2019-06-01T19:32:25.047Z,2.73
2019-06-01T19:34:55.436Z,4.13
2019-06-01T19:37:26.917Z,3.80
2019-06-01T19:39:57.107Z,2.97
2019-06-01T19:42:27.101Z,3.17
2019-06-01T19:44:57.111Z,3.60
2019-06-01T19:47:27.092Z,3.00
2019-06-01T19:49:57.105Z,4.53
2019-06-01T19:52:27.155Z,3.70
2019-06-01T19:54:57.175Z,5.90
2019-06-01T19:57:27.082Z,3.80
2019-06-01T19:59:57.035Z,4.10
2019-06-01T20:02:33.787Z,4.47
2019-06-01T20:04:58.798Z,7.87
2019-06-01T20:07:28.850Z,6.07
2019-06-01T20:09:58.859Z,3.83
2019-06-01T20:12:28.844Z,3.07
2019-06-01T20:14:58.826Z,4.90
2019-06-01T20:17:28.940Z,5.40
2019-06-01T20:19:58.910Z,5.07
2019-06-01T20:22:28.907Z,5.43
2019-06-01T20:24:58.827Z,5.33
2019-06-01T20:27:28.909Z,8.57
2019-06-01T20:29:58.952Z,5.67
2019-06-01T20:32:29.044Z,9.80
2019-06-01T20:34:59.085Z,6.33
2019-06-01T20:37:29.097Z,7.00
2019-06-01T20:39:59.073Z,6.53
2019-06-01T20:42:32.433Z,11.93
2019-06-01T20:45:00.847Z,7.57
2019-06-01T20:47:32.751Z,10.80
2019-06-01T20:50:03.741Z,9.77
2019-06-01T20:52:33.828Z,9.93
2019-06-01T20:55:06.245Z,7.40
2019-06-01T20:57:36.301Z,12.10
2019-06-01T21:00:10.804Z,11.70
2019-06-01T21:02:41.950Z,6.27
2019-06-01T21:05:13.747Z,8.00
2019-06-01T21:07:43.971Z,12.07
2019-06-01T21:10:16.183Z,12.20
2019-06-01T21:12:46.387Z,8.43
2019-06-01T21:15:17.386Z,10.03
2019-06-01T21:17:50.150Z,11.23
2019-06-01T21:20:26.872Z,10.40
2019-06-01T21:22:52.566Z,7.50
2019-06-01T21:25:22.915Z,11.67
2019-06-01T21:27:53.223Z,9.93
2019-06-01T21:30:24.647Z,8.37
2019-06-01T21:32:54.923Z,9.37
2019-06-01T21:35:25.563Z,9.27
2019-06-01T21:37:55.715Z,10.73
2019-06-01T21:40:25.824Z,7.97
2019-06-01T21:43:03.089Z,7.57
2019-06-01T21:45:27.661Z,9.20
2019-06-01T21:47:57.648Z,7.20
2019-06-01T21:50:27.664Z,6.70
2019-06-01T21:52:57.660Z,9.27
2019-06-01T21:55:27.736Z,6.40
2019-06-01T21:57:57.718Z,10.10
2019-06-01T22:00:33.830Z,8.90
2019-06-01T22:03:07.405Z,8.97
2019-06-01T22:05:37.702Z,10.13
2019-06-01T22:08:07.681Z,7.97
2019-06-01T22:10:37.696Z,7.23
2019-06-01T22:13:18.211Z,9.00
2019-06-01T22:15:39.384Z,8.60
2019-06-01T22:18:09.365Z,8.87
2019-06-01T22:20:39.376Z,7.60
2019-06-01T22:23:11.828Z,10.17
2019-06-01T22:25:41.160Z,8.87
2019-06-01T22:28:11.243Z,9.00
2019-06-01T22:30:42.213Z,14.67
2019-06-01T22:33:12.230Z,7.80
2019-06-01T22:35:42.245Z,9.47
2019-06-01T22:38:12.224Z,4.43
2019-06-01T22:40:42.257Z,9.50
2019-06-01T22:43:12.250Z,8.87
2019-06-01T22:45:42.271Z,6.20
2019-06-01T22:48:12.252Z,8.57
2019-06-01T22:50:42.366Z,7.67
2019-06-01T22:53:12.344Z,9.07
2019-06-01T22:55:42.355Z,7.23
2019-06-01T22:58:12.406Z,7.17
2019-06-01T23:00:42.430Z,8.67
2019-06-01T23:03:12.413Z,5.83
2019-06-01T23:05:42.492Z,6.77
2019-06-01T23:08:12.577Z,9.27
2019-06-01T23:10:42.554Z,5.33
2019-06-01T23:13:12.642Z,8.50
2019-06-01T23:15:42.652Z,6.30
2019-06-01T23:18:12.642Z,6.03
2019-06-01T23:20:42.695Z,7.93
2019-06-01T23:23:13.991Z,10.97
2019-06-01T23:25:44.038Z,6.23
2019-06-01T23:28:14.045Z,4.80
2019-06-01T23:30:45.394Z,9.20
2019-06-01T23:33:15.406Z,6.77
2019-06-01T23:35:45.383Z,7.40
2019-06-01T23:38:15.395Z,5.43
2019-06-01T23:40:45.379Z,5.20
2019-06-01T23:43:15.384Z,6.00
2019-06-01T23:45:45.367Z,3.43
2019-06-01T23:48:15.404Z,6.37
2019-06-01T23:50:45.426Z,8.33
2019-06-01T23:53:15.452Z,5.23
2019-06-01T23:55:45.430Z,6.43
2019-06-01T23:58:15.442Z,6.97
